sensor_id;sensor_type;location;lat;lon;timestamp;P1;durP1;ratioP1;P2;durP2;ratioP2
4202;SDS011;2115;51.038;7.006;2022-10-16T00:01:38;20.53;;;5.77;;
4202;SDS011;2115;51.038;7.006;2022-10-16T00:04:03;11.63;;;4.93;;
4202;SDS011;2115;51.038;7.006;2022-10-16T00:06:30;7.33;;;5.10;;
4202;SDS011;2115;51.038;7.006;2022-10-16T00:08:55;7.87;;;4.70;;
4202;SDS011;2115;51.038;7.006;2022-10-16T00:11:22;15.63;;;4.60;;
4202;SDS011;2115;51.038;7.006;2022-10-16T00:13:50;10.80;;;4.70;;
4202;SDS011;2115;51.038;7.006;2022-10-16T00:16:17;7.77;;;4.40;;
4202;SDS011;2115;51.038;7.006;2022-10-16T00:18:43;11.07;;;4.53;;
4202;SDS011;2115;51.038;7.006;2022-10-16T00:21:10;6.70;;;4.70;;
4202;SDS011;2115;51.038;7.006;2022-10-16T00:23:37;9.40;;;4.70;;
4202;SDS011;2115;51.038;7.006;2022-10-16T00:26:04;11.83;;;4.80;;
4202;SDS011;2115;51.038;7.006;2022-10-16T00:28:31;12.17;;;4.53;;
4202;SDS011;2115;51.038;7.006;2022-10-16T00:30:57;8.83;;;4.87;;
4202;SDS011;2115;51.038;7.006;2022-10-16T00:33:23;14.97;;;4.87;;
4202;SDS011;2115;51.038;7.006;2022-10-16T00:35:48;8.70;;;4.40;;
4202;SDS011;2115;51.038;7.006;2022-10-16T00:38:14;7.77;;;5.20;;
4202;SDS011;2115;51.038;7.006;2022-10-16T00:40:39;11.47;;;4.30;;
4202;SDS011;2115;51.038;7.006;2022-10-16T00:43:31;7.23;;;4.33;;
4202;SDS011;2115;51.038;7.006;2022-10-16T00:46:17;8.93;;;5.00;;
4202;SDS011;2115;51.038;7.006;2022-10-16T00:51:42;6.70;;;4.17;;
4202;SDS011;2115;51.038;7.006;2022-10-16T00:54:14;8.70;;;4.37;;
4202;SDS011;2115;51.038;7.006;2022-10-16T00:56:42;5.37;;;3.50;;
4202;SDS011;2115;51.038;7.006;2022-10-16T00:59:14;6.57;;;4.30;;
4202;SDS011;2115;51.038;7.006;2022-10-16T01:01:41;6.30;;;4.57;;
4202;SDS011;2115;51.038;7.006;2022-10-16T01:04:06;14.13;;;4.27;;
4202;SDS011;2115;51.038;7.006;2022-10-16T01:14:11;5.80;;;4.30;;
4202;SDS011;2115;51.038;7.006;2022-10-16T01:16:49;6.13;;;4.47;;
4202;SDS011;2115;51.038;7.006;2022-10-16T01:20:35;6.10;;;4.10;;
4202;SDS011;2115;51.038;7.006;2022-10-16T01:22:59;11.90;;;4.57;;
4202;SDS011;2115;51.038;7.006;2022-10-16T01:28:01;12.83;;;3.93;;
4202;SDS011;2115;51.038;7.006;2022-10-16T01:30:29;8.70;;;3.90;;
4202;SDS011;2115;51.038;7.006;2022-10-16T01:32:57;6.60;;;4.17;;
4202;SDS011;2115;51.038;7.006;2022-10-16T01:35:43;5.53;;;3.43;;
4202;SDS011;2115;51.038;7.006;2022-10-16T01:38:44;6.10;;;3.73;;
4202;SDS011;2115;51.038;7.006;2022-10-16T01:44:14;6.07;;;3.10;;
4202;SDS011;2115;51.038;7.006;2022-10-16T01:46:39;7.23;;;3.67;;
4202;SDS011;2115;51.038;7.006;2022-10-16T01:49:06;7.20;;;3.43;;
4202;SDS011;2115;51.038;7.006;2022-10-16T01:51:33;4.80;;;2.90;;
4202;SDS011;2115;51.038;7.006;2022-10-16T01:54:00;8.03;;;4.30;;
4202;SDS011;2115;51.038;7.006;2022-10-16T01:56:26;7.30;;;3.90;;
4202;SDS011;2115;51.038;7.006;2022-10-16T01:58:54;7.20;;;3.80;;
4202;SDS011;2115;51.038;7.006;2022-10-16T02:01:23;6.70;;;3.97;;
4202;SDS011;2115;51.038;7.006;2022-10-16T02:03:50;6.33;;;3.60;;
4202;SDS011;2115;51.038;7.006;2022-10-16T02:06:18;5.87;;;4.00;;
4202;SDS011;2115;51.038;7.006;2022-10-16T02:08:43;8.47;;;3.70;;
4202;SDS011;2115;51.038;7.006;2022-10-16T02:11:09;5.67;;;3.30;;
4202;SDS011;2115;51.038;7.006;2022-10-16T02:13:43;11.07;;;3.77;;
4202;SDS011;2115;51.038;7.006;2022-10-16T02:16:10;11.33;;;6.07;;
4202;SDS011;2115;51.038;7.006;2022-10-16T02:18:37;23.23;;;12.03;;
4202;SDS011;2115;51.038;7.006;2022-10-16T02:21:13;21.80;;;10.47;;
4202;SDS011;2115;51.038;7.006;2022-10-16T02:23:49;17.00;;;7.80;;
4202;SDS011;2115;51.038;7.006;2022-10-16T02:26:22;26.60;;;8.70;;
4202;SDS011;2115;51.038;7.006;2022-10-16T02:28:53;21.47;;;10.00;;
4202;SDS011;2115;51.038;7.006;2022-10-16T02:31:23;23.20;;;8.53;;
4202;SDS011;2115;51.038;7.006;2022-10-16T02:33:52;20.10;;;10.80;;
4202;SDS011;2115;51.038;7.006;2022-10-16T02:36:18;13.97;;;8.00;;
4202;SDS011;2115;51.038;7.006;2022-10-16T02:38:43;18.37;;;8.40;;
4202;SDS011;2115;51.038;7.006;2022-10-16T02:41:09;16.20;;;8.67;;
4202;SDS011;2115;51.038;7.006;2022-10-16T02:43:35;19.53;;;8.37;;
4202;SDS011;2115;51.038;7.006;2022-10-16T02:46:00;12.30;;;6.50;;
4202;SDS011;2115;51.038;7.006;2022-10-16T02:48:25;15.30;;;6.77;;
4202;SDS011;2115;51.038;7.006;2022-10-16T02:50:51;14.70;;;5.70;;
4202;SDS011;2115;51.038;7.006;2022-10-16T02:53:16;14.07;;;7.00;;
4202;SDS011;2115;51.038;7.006;2022-10-16T02:55:42;19.53;;;6.60;;
4202;SDS011;2115;51.038;7.006;2022-10-16T02:58:07;15.23;;;5.00;;
4202;SDS011;2115;51.038;7.006;2022-10-16T03:00:32;15.77;;;5.53;;
4202;SDS011;2115;51.038;7.006;2022-10-16T03:02:58;6.47;;;4.13;;
4202;SDS011;2115;51.038;7.006;2022-10-16T03:05:23;9.23;;;3.37;;
4202;SDS011;2115;51.038;7.006;2022-10-16T03:07:48;12.93;;;3.73;;
4202;SDS011;2115;51.038;7.006;2022-10-16T03:10:14;10.30;;;3.53;;
4202;SDS011;2115;51.038;7.006;2022-10-16T03:12:39;8.10;;;3.67;;
4202;SDS011;2115;51.038;7.006;2022-10-16T03:15:05;6.33;;;3.37;;
4202;SDS011;2115;51.038;7.006;2022-10-16T03:17:32;3.60;;;2.90;;
4202;SDS011;2115;51.038;7.006;2022-10-16T03:19:57;14.00;;;3.77;;
4202;SDS011;2115;51.038;7.006;2022-10-16T03:22:22;6.40;;;2.50;;
4202;SDS011;2115;51.038;7.006;2022-10-16T03:24:48;5.80;;;3.20;;
4202;SDS011;2115;51.038;7.006;2022-10-16T03:27:13;17.93;;;2.97;;
4202;SDS011;2115;51.038;7.006;2022-10-16T03:29:38;22.73;;;2.83;;
4202;SDS011;2115;51.038;7.006;2022-10-16T03:32:04;8.10;;;2.90;;
4202;SDS011;2115;51.038;7.006;2022-10-16T03:34:29;9.23;;;2.80;;
4202;SDS011;2115;51.038;7.006;2022-10-16T03:36:54;4.67;;;2.70;;
4202;SDS011;2115;51.038;7.006;2022-10-16T03:39:20;6.30;;;3.60;;
4202;SDS011;2115;51.038;7.006;2022-10-16T03:41:45;5.80;;;3.10;;
4202;SDS011;2115;51.038;7.006;2022-10-16T03:44:13;3.70;;;2.57;;
4202;SDS011;2115;51.038;7.006;2022-10-16T03:46:39;4.30;;;2.77;;
4202;SDS011;2115;51.038;7.006;2022-10-16T03:49:04;12.60;;;2.93;;
4202;SDS011;2115;51.038;7.006;2022-10-16T03:51:30;7.87;;;2.90;;
4202;SDS011;2115;51.038;7.006;2022-10-16T03:53:55;5.30;;;3.00;;
4202;SDS011;2115;51.038;7.006;2022-10-16T03:56:21;4.70;;;3.00;;
4202;SDS011;2115;51.038;7.006;2022-10-16T03:58:46;11.13;;;3.37;;
4202;SDS011;2115;51.038;7.006;2022-10-16T04:01:11;5.93;;;2.50;;
4202;SDS011;2115;51.038;7.006;2022-10-16T04:03:37;6.13;;;3.10;;
4202;SDS011;2115;51.038;7.006;2022-10-16T04:06:02;3.83;;;2.50;;
4202;SDS011;2115;51.038;7.006;2022-10-16T04:08:28;3.83;;;3.20;;
4202;SDS011;2115;51.038;7.006;2022-10-16T04:10:53;7.37;;;3.60;;
4202;SDS011;2115;51.038;7.006;2022-10-16T04:13:18;5.13;;;2.77;;
4202;SDS011;2115;51.038;7.006;2022-10-16T04:15:44;7.70;;;3.57;;
4202;SDS011;2115;51.038;7.006;2022-10-16T04:18:10;10.97;;;3.27;;
4202;SDS011;2115;51.038;7.006;2022-10-16T04:20:36;5.37;;;3.37;;
4202;SDS011;2115;51.038;7.006;2022-10-16T04:23:01;8.00;;;3.00;;
4202;SDS011;2115;51.038;7.006;2022-10-16T04:25:26;7.23;;;3.27;;
4202;SDS011;2115;51.038;7.006;2022-10-16T04:27:52;5.57;;;3.60;;
4202;SDS011;2115;51.038;7.006;2022-10-16T04:30:18;5.73;;;3.37;;
4202;SDS011;2115;51.038;7.006;2022-10-16T04:32:47;11.43;;;3.40;;
4202;SDS011;2115;51.038;7.006;2022-10-16T04:35:13;8.70;;;3.30;;
4202;SDS011;2115;51.038;7.006;2022-10-16T04:37:39;8.70;;;3.10;;
4202;SDS011;2115;51.038;7.006;2022-10-16T04:40:04;6.50;;;3.80;;
4202;SDS011;2115;51.038;7.006;2022-10-16T04:42:30;11.30;;;3.43;;
4202;SDS011;2115;51.038;7.006;2022-10-16T04:44:55;5.70;;;3.53;;
4202;SDS011;2115;51.038;7.006;2022-10-16T04:47:20;7.33;;;3.30;;
4202;SDS011;2115;51.038;7.006;2022-10-16T04:49:46;5.80;;;2.87;;
4202;SDS011;2115;51.038;7.006;2022-10-16T04:52:11;3.63;;;2.90;;
4202;SDS011;2115;51.038;7.006;2022-10-16T04:54:36;6.90;;;2.83;;
4202;SDS011;2115;51.038;7.006;2022-10-16T04:57:02;4.83;;;2.70;;
4202;SDS011;2115;51.038;7.006;2022-10-16T04:59:27;6.00;;;3.20;;
4202;SDS011;2115;51.038;7.006;2022-10-16T05:01:52;6.50;;;3.10;;
4202;SDS011;2115;51.038;7.006;2022-10-16T05:04:18;8.07;;;3.00;;
4202;SDS011;2115;51.038;7.006;2022-10-16T05:06:43;20.17;;;3.30;;
4202;SDS011;2115;51.038;7.006;2022-10-16T05:09:09;4.90;;;3.00;;
4202;SDS011;2115;51.038;7.006;2022-10-16T05:11:34;5.60;;;2.50;;
4202;SDS011;2115;51.038;7.006;2022-10-16T05:14:00;5.83;;;2.70;;
4202;SDS011;2115;51.038;7.006;2022-10-16T05:16:25;7.30;;;3.00;;
4202;SDS011;2115;51.038;7.006;2022-10-16T05:18:51;4.80;;;3.10;;
4202;SDS011;2115;51.038;7.006;2022-10-16T05:21:17;5.07;;;2.90;;
4202;SDS011;2115;51.038;7.006;2022-10-16T05:23:42;4.93;;;3.10;;
4202;SDS011;2115;51.038;7.006;2022-10-16T05:26:07;6.13;;;2.70;;
4202;SDS011;2115;51.038;7.006;2022-10-16T05:28:33;6.40;;;2.93;;
4202;SDS011;2115;51.038;7.006;2022-10-16T05:30:58;4.23;;;2.60;;
4202;SDS011;2115;51.038;7.006;2022-10-16T05:33:25;6.13;;;3.60;;
4202;SDS011;2115;51.038;7.006;2022-10-16T05:35:50;6.43;;;3.40;;
4202;SDS011;2115;51.038;7.006;2022-10-16T05:38:16;9.07;;;3.07;;
4202;SDS011;2115;51.038;7.006;2022-10-16T05:40:42;5.47;;;2.87;;
4202;SDS011;2115;51.038;7.006;2022-10-16T05:43:07;6.00;;;3.40;;
4202;SDS011;2115;51.038;7.006;2022-10-16T05:45:33;7.27;;;3.13;;
4202;SDS011;2115;51.038;7.006;2022-10-16T05:47:59;4.47;;;2.73;;
4202;SDS011;2115;51.038;7.006;2022-10-16T05:50:24;5.93;;;3.40;;
4202;SDS011;2115;51.038;7.006;2022-10-16T05:52:50;8.47;;;3.00;;
4202;SDS011;2115;51.038;7.006;2022-10-16T05:55:15;8.70;;;3.10;;
4202;SDS011;2115;51.038;7.006;2022-10-16T05:57:40;5.70;;;2.87;;
4202;SDS011;2115;51.038;7.006;2022-10-16T06:00:06;4.30;;;2.97;;
4202;SDS011;2115;51.038;7.006;2022-10-16T06:02:32;9.67;;;2.77;;
4202;SDS011;2115;51.038;7.006;2022-10-16T06:04:57;8.97;;;2.90;;
4202;SDS011;2115;51.038;7.006;2022-10-16T06:07:22;9.23;;;2.73;;
4202;SDS011;2115;51.038;7.006;2022-10-16T06:09:48;8.03;;;3.50;;
4202;SDS011;2115;51.038;7.006;2022-10-16T06:12:14;5.43;;;3.00;;
4202;SDS011;2115;51.038;7.006;2022-10-16T06:14:40;5.80;;;2.60;;
4202;SDS011;2115;51.038;7.006;2022-10-16T06:17:06;10.03;;;2.83;;
4202;SDS011;2115;51.038;7.006;2022-10-16T06:19:31;5.07;;;2.77;;
4202;SDS011;2115;51.038;7.006;2022-10-16T06:21:56;10.00;;;2.70;;
4202;SDS011;2115;51.038;7.006;2022-10-16T06:24:23;5.30;;;2.90;;
4202;SDS011;2115;51.038;7.006;2022-10-16T06:26:48;4.70;;;2.47;;
4202;SDS011;2115;51.038;7.006;2022-10-16T06:29:13;3.70;;;2.70;;
4202;SDS011;2115;51.038;7.006;2022-10-16T06:31:39;7.13;;;3.20;;
4202;SDS011;2115;51.038;7.006;2022-10-16T06:34:04;6.60;;;2.60;;
4202;SDS011;2115;51.038;7.006;2022-10-16T06:36:34;9.10;;;2.70;;
4202;SDS011;2115;51.038;7.006;2022-10-16T06:38:59;3.10;;;2.27;;
4202;SDS011;2115;51.038;7.006;2022-10-16T06:41:24;7.13;;;2.83;;
4202;SDS011;2115;51.038;7.006;2022-10-16T06:43:50;6.50;;;2.47;;
4202;SDS011;2115;51.038;7.006;2022-10-16T06:46:16;3.43;;;2.83;;
4202;SDS011;2115;51.038;7.006;2022-10-16T06:48:43;10.27;;;2.77;;
4202;SDS011;2115;51.038;7.006;2022-10-16T06:51:16;3.20;;;2.87;;
4202;SDS011;2115;51.038;7.006;2022-10-16T06:53:44;4.53;;;2.90;;
4202;SDS011;2115;51.038;7.006;2022-10-16T06:56:29;4.07;;;2.60;;
4202;SDS011;2115;51.038;7.006;2022-10-16T06:58:55;3.60;;;2.90;;
4202;SDS011;2115;51.038;7.006;2022-10-16T07:01:21;3.30;;;2.50;;
4202;SDS011;2115;51.038;7.006;2022-10-16T07:03:48;8.20;;;2.80;;
4202;SDS011;2115;51.038;7.006;2022-10-16T07:06:14;3.97;;;2.43;;
4202;SDS011;2115;51.038;7.006;2022-10-16T07:08:42;2.87;;;2.20;;
4202;SDS011;2115;51.038;7.006;2022-10-16T07:11:10;5.50;;;2.73;;
4202;SDS011;2115;51.038;7.006;2022-10-16T07:13:37;4.50;;;2.30;;
4202;SDS011;2115;51.038;7.006;2022-10-16T07:16:06;7.30;;;3.03;;
4202;SDS011;2115;51.038;7.006;2022-10-16T07:18:36;3.10;;;2.57;;
4202;SDS011;2115;51.038;7.006;2022-10-16T07:21:07;2.43;;;1.90;;
4202;SDS011;2115;51.038;7.006;2022-10-16T07:23:37;3.40;;;2.30;;
4202;SDS011;2115;51.038;7.006;2022-10-16T07:26:03;4.17;;;2.53;;
4202;SDS011;2115;51.038;7.006;2022-10-16T07:28:29;5.20;;;2.27;;
4202;SDS011;2115;51.038;7.006;2022-10-16T07:30:54;2.37;;;1.87;;
4202;SDS011;2115;51.038;7.006;2022-10-16T07:33:20;8.57;;;2.43;;
4202;SDS011;2115;51.038;7.006;2022-10-16T07:35:53;3.77;;;2.20;;
4202;SDS011;2115;51.038;7.006;2022-10-16T07:38:19;7.77;;;2.17;;
4202;SDS011;2115;51.038;7.006;2022-10-16T07:40:45;4.07;;;2.40;;
4202;SDS011;2115;51.038;7.006;2022-10-16T07:43:11;6.23;;;2.20;;
4202;SDS011;2115;51.038;7.006;2022-10-16T07:45:36;4.20;;;2.53;;
4202;SDS011;2115;51.038;7.006;2022-10-16T07:48:02;4.60;;;1.97;;
4202;SDS011;2115;51.038;7.006;2022-10-16T07:50:27;4.17;;;2.73;;
4202;SDS011;2115;51.038;7.006;2022-10-16T07:52:53;5.73;;;2.53;;
4202;SDS011;2115;51.038;7.006;2022-10-16T07:55:18;3.70;;;2.43;;
4202;SDS011;2115;51.038;7.006;2022-10-16T07:57:43;3.97;;;2.57;;
4202;SDS011;2115;51.038;7.006;2022-10-16T08:00:09;3.40;;;2.40;;
4202;SDS011;2115;51.038;7.006;2022-10-16T08:02:38;5.07;;;2.73;;
4202;SDS011;2115;51.038;7.006;2022-10-16T08:05:04;3.87;;;2.73;;
4202;SDS011;2115;51.038;7.006;2022-10-16T08:07:30;4.77;;;2.90;;
4202;SDS011;2115;51.038;7.006;2022-10-16T08:09:56;8.00;;;3.00;;
4202;SDS011;2115;51.038;7.006;2022-10-16T08:12:23;4.50;;;3.00;;
4202;SDS011;2115;51.038;7.006;2022-10-16T08:14:48;9.60;;;2.93;;
4202;SDS011;2115;51.038;7.006;2022-10-16T08:17:14;3.90;;;2.53;;
4202;SDS011;2115;51.038;7.006;2022-10-16T08:19:43;4.93;;;2.20;;
4202;SDS011;2115;51.038;7.006;2022-10-16T08:22:09;3.40;;;1.97;;
4202;SDS011;2115;51.038;7.006;2022-10-16T08:24:34;2.43;;;1.77;;
4202;SDS011;2115;51.038;7.006;2022-10-16T08:27:02;9.50;;;2.03;;
4202;SDS011;2115;51.038;7.006;2022-10-16T08:29:27;2.30;;;1.33;;
4202;SDS011;2115;51.038;7.006;2022-10-16T08:31:53;2.33;;;1.73;;
4202;SDS011;2115;51.038;7.006;2022-10-16T08:34:18;4.83;;;1.70;;
4202;SDS011;2115;51.038;7.006;2022-10-16T08:36:44;6.30;;;1.80;;
4202;SDS011;2115;51.038;7.006;2022-10-16T08:39:09;2.47;;;1.40;;
4202;SDS011;2115;51.038;7.006;2022-10-16T08:44:20;1.90;;;1.50;;
4202;SDS011;2115;51.038;7.006;2022-10-16T08:49:16;2.87;;;1.00;;
4202;SDS011;2115;51.038;7.006;2022-10-16T08:51:42;2.00;;;1.23;;
4202;SDS011;2115;51.038;7.006;2022-10-16T08:57:13;3.10;;;1.10;;
4202;SDS011;2115;51.038;7.006;2022-10-16T08:59:41;2.60;;;1.10;;
4202;SDS011;2115;51.038;7.006;2022-10-16T09:08:04;8.00;;;1.30;;
4202;SDS011;2115;51.038;7.006;2022-10-16T09:16:14;3.77;;;1.30;;
4202;SDS011;2115;51.038;7.006;2022-10-16T09:21:20;5.13;;;1.00;;
4202;SDS011;2115;51.038;7.006;2022-10-16T09:23:48;3.50;;;1.27;;
4202;SDS011;2115;51.038;7.006;2022-10-16T09:26:14;3.37;;;1.10;;
4202;SDS011;2115;51.038;7.006;2022-10-16T09:28:40;2.53;;;0.80;;
4202;SDS011;2115;51.038;7.006;2022-10-16T09:31:10;3.50;;;0.80;;
4202;SDS011;2115;51.038;7.006;2022-10-16T09:33:39;1.43;;;0.90;;
4202;SDS011;2115;51.038;7.006;2022-10-16T09:36:06;2.90;;;0.93;;
4202;SDS011;2115;51.038;7.006;2022-10-16T09:38:35;6.77;;;1.20;;
4202;SDS011;2115;51.038;7.006;2022-10-16T09:41:02;3.60;;;0.90;;
4202;SDS011;2115;51.038;7.006;2022-10-16T09:46:33;15.50;;;1.40;;
4202;SDS011;2115;51.038;7.006;2022-10-16T09:49:02;3.97;;;0.80;;
4202;SDS011;2115;51.038;7.006;2022-10-16T09:51:42;5.10;;;0.87;;
4202;SDS011;2115;51.038;7.006;2022-10-16T09:56:34;3.03;;;0.77;;
4202;SDS011;2115;51.038;7.006;2022-10-16T09:59:08;4.50;;;1.30;;
4202;SDS011;2115;51.038;7.006;2022-10-16T10:04:12;4.20;;;1.40;;
4202;SDS011;2115;51.038;7.006;2022-10-16T10:06:56;2.07;;;1.03;;
4202;SDS011;2115;51.038;7.006;2022-10-16T10:09:23;2.50;;;0.90;;
4202;SDS011;2115;51.038;7.006;2022-10-16T10:11:59;2.40;;;0.70;;
4202;SDS011;2115;51.038;7.006;2022-10-16T10:17:28;4.27;;;0.83;;
4202;SDS011;2115;51.038;7.006;2022-10-16T10:19:57;3.37;;;0.90;;
4202;SDS011;2115;51.038;7.006;2022-10-16T10:22:43;2.03;;;1.23;;
4202;SDS011;2115;51.038;7.006;2022-10-16T10:27:46;3.63;;;0.87;;
4202;SDS011;2115;51.038;7.006;2022-10-16T10:35:22;4.93;;;0.97;;
4202;SDS011;2115;51.038;7.006;2022-10-16T10:40:44;2.07;;;0.87;;
4202;SDS011;2115;51.038;7.006;2022-10-16T10:46:08;1.97;;;0.80;;
4202;SDS011;2115;51.038;7.006;2022-10-16T10:51:16;6.90;;;0.90;;
4202;SDS011;2115;51.038;7.006;2022-10-16T10:56:20;1.63;;;0.60;;
4202;SDS011;2115;51.038;7.006;2022-10-16T10:59:01;1.20;;;0.57;;
4202;SDS011;2115;51.038;7.006;2022-10-16T11:01:44;1.60;;;0.60;;
4202;SDS011;2115;51.038;7.006;2022-10-16T11:07:29;2.27;;;0.80;;
4202;SDS011;2115;51.038;7.006;2022-10-16T11:10:13;2.43;;;0.70;;
4202;SDS011;2115;51.038;7.006;2022-10-16T11:12:46;2.13;;;0.80;;
4202;SDS011;2115;51.038;7.006;2022-10-16T11:15:14;5.53;;;0.97;;
4202;SDS011;2115;51.038;7.006;2022-10-16T11:18:06;3.30;;;1.23;;
4202;SDS011;2115;51.038;7.006;2022-10-16T11:20:33;2.37;;;0.80;;
4202;SDS011;2115;51.038;7.006;2022-10-16T11:23:13;3.03;;;0.80;;
4202;SDS011;2115;51.038;7.006;2022-10-16T11:25:41;3.40;;;0.93;;
4202;SDS011;2115;51.038;7.006;2022-10-16T11:31:19;3.60;;;1.10;;
4202;SDS011;2115;51.038;7.006;2022-10-16T11:34:12;3.83;;;0.83;;
4202;SDS011;2115;51.038;7.006;2022-10-16T11:36:22;2.17;;;0.67;;
4202;SDS011;2115;51.038;7.006;2022-10-16T11:38:56;5.53;;;1.07;;
4202;SDS011;2115;51.038;7.006;2022-10-16T11:44:41;3.30;;;0.90;;
4202;SDS011;2115;51.038;7.006;2022-10-16T11:46:51;3.00;;;0.70;;
4202;SDS011;2115;51.038;7.006;2022-10-16T11:49:33;7.28;;;1.00;;
4202;SDS011;2115;51.038;7.006;2022-10-16T11:52:01;4.63;;;0.93;;
4202;SDS011;2115;51.038;7.006;2022-10-16T11:54:43;3.80;;;0.80;;
4202;SDS011;2115;51.038;7.006;2022-10-16T11:57:16;4.90;;;0.95;;
4202;SDS011;2115;51.038;7.006;2022-10-16T11:59:52;2.97;;;0.73;;
4202;SDS011;2115;51.038;7.006;2022-10-16T12:02:37;1.80;;;0.75;;
4202;SDS011;2115;51.038;7.006;2022-10-16T12:05:22;1.90;;;0.90;;
4202;SDS011;2115;51.038;7.006;2022-10-16T12:10:36;1.87;;;0.87;;
4202;SDS011;2115;51.038;7.006;2022-10-16T12:13:44;1.90;;;0.80;;
4202;SDS011;2115;51.038;7.006;2022-10-16T12:16:31;3.43;;;0.83;;
4202;SDS011;2115;51.038;7.006;2022-10-16T12:18:50;1.40;;;0.70;;
4202;SDS011;2115;51.038;7.006;2022-10-16T12:21:32;2.90;;;0.80;;
4202;SDS011;2115;51.038;7.006;2022-10-16T12:23:58;1.50;;;0.63;;
4202;SDS011;2115;51.038;7.006;2022-10-16T12:26:26;3.93;;;0.83;;
4202;SDS011;2115;51.038;7.006;2022-10-16T12:28:53;3.20;;;0.60;;
4202;SDS011;2115;51.038;7.006;2022-10-16T12:31:19;1.87;;;0.90;;
4202;SDS011;2115;51.038;7.006;2022-10-16T12:34:01;9.70;;;1.03;;
4202;SDS011;2115;51.038;7.006;2022-10-16T12:36:28;2.07;;;0.73;;
4202;SDS011;2115;51.038;7.006;2022-10-16T12:38:57;2.43;;;0.80;;
4202;SDS011;2115;51.038;7.006;2022-10-16T12:41:33;3.70;;;1.47;;
4202;SDS011;2115;51.038;7.006;2022-10-16T12:44:00;1.60;;;0.77;;
4202;SDS011;2115;51.038;7.006;2022-10-16T12:49:19;4.07;;;0.90;;
4202;SDS011;2115;51.038;7.006;2022-10-16T12:51:47;4.10;;;1.10;;
4202;SDS011;2115;51.038;7.006;2022-10-16T12:54:16;6.43;;;0.90;;
4202;SDS011;2115;51.038;7.006;2022-10-16T12:59:24;2.95;;;0.75;;
4202;SDS011;2115;51.038;7.006;2022-10-16T13:04:40;2.05;;;0.88;;
4202;SDS011;2115;51.038;7.006;2022-10-16T13:07:17;2.47;;;0.80;;
4202;SDS011;2115;51.038;7.006;2022-10-16T13:12:29;2.38;;;0.80;;
4202;SDS011;2115;51.038;7.006;2022-10-16T13:15:19;3.10;;;0.93;;
4202;SDS011;2115;51.038;7.006;2022-10-16T13:18:03;2.65;;;0.70;;
4202;SDS011;2115;51.038;7.006;2022-10-16T13:29:07;2.03;;;0.80;;
4202;SDS011;2115;51.038;7.006;2022-10-16T13:31:32;2.47;;;0.93;;
4202;SDS011;2115;51.038;7.006;2022-10-16T13:33:59;2.70;;;1.10;;
4202;SDS011;2115;51.038;7.006;2022-10-16T13:36:26;1.90;;;0.67;;
4202;SDS011;2115;51.038;7.006;2022-10-16T13:41:46;1.77;;;0.70;;
4202;SDS011;2115;51.038;7.006;2022-10-16T13:44:22;4.03;;;0.60;;
4202;SDS011;2115;51.038;7.006;2022-10-16T13:46:57;1.83;;;0.68;;
4202;SDS011;2115;51.038;7.006;2022-10-16T13:49:24;4.13;;;0.73;;
4202;SDS011;2115;51.038;7.006;2022-10-16T13:51:56;3.08;;;0.63;;
4202;SDS011;2115;51.038;7.006;2022-10-16T13:54:26;2.95;;;0.70;;
4202;SDS011;2115;51.038;7.006;2022-10-16T13:56:53;4.93;;;1.13;;
4202;SDS011;2115;51.038;7.006;2022-10-16T13:59:23;6.43;;;0.80;;
4202;SDS011;2115;51.038;7.006;2022-10-16T14:01:50;2.85;;;1.00;;
4202;SDS011;2115;51.038;7.006;2022-10-16T14:04:18;1.63;;;0.70;;
4202;SDS011;2115;51.038;7.006;2022-10-16T14:06:45;3.80;;;0.80;;
4202;SDS011;2115;51.038;7.006;2022-10-16T14:09:28;4.60;;;0.80;;
4202;SDS011;2115;51.038;7.006;2022-10-16T14:11:58;3.23;;;0.80;;
4202;SDS011;2115;51.038;7.006;2022-10-16T14:14:45;1.97;;;0.90;;
4202;SDS011;2115;51.038;7.006;2022-10-16T14:17:19;3.77;;;1.00;;
4202;SDS011;2115;51.038;7.006;2022-10-16T14:19:48;6.83;;;1.07;;
4202;SDS011;2115;51.038;7.006;2022-10-16T14:22:26;2.60;;;0.60;;
4202;SDS011;2115;51.038;7.006;2022-10-16T14:24:54;2.23;;;0.70;;
4202;SDS011;2115;51.038;7.006;2022-10-16T14:27:26;2.63;;;1.00;;
4202;SDS011;2115;51.038;7.006;2022-10-16T14:32:56;3.47;;;1.03;;
4202;SDS011;2115;51.038;7.006;2022-10-16T14:35:36;3.97;;;1.33;;
4202;SDS011;2115;51.038;7.006;2022-10-16T14:38:03;4.33;;;1.83;;
4202;SDS011;2115;51.038;7.006;2022-10-16T14:40:33;2.83;;;1.20;;
4202;SDS011;2115;51.038;7.006;2022-10-16T14:43:01;3.60;;;1.83;;
4202;SDS011;2115;51.038;7.006;2022-10-16T14:45:28;6.87;;;2.40;;
4202;SDS011;2115;51.038;7.006;2022-10-16T14:47:56;4.93;;;1.93;;
4202;SDS011;2115;51.038;7.006;2022-10-16T14:50:23;2.07;;;1.23;;
4202;SDS011;2115;51.038;7.006;2022-10-16T14:52:48;7.70;;;1.40;;
4202;SDS011;2115;51.038;7.006;2022-10-16T14:55:14;5.83;;;1.57;;
4202;SDS011;2115;51.038;7.006;2022-10-16T14:57:42;3.73;;;1.40;;
4202;SDS011;2115;51.038;7.006;2022-10-16T15:00:21;2.57;;;1.00;;
4202;SDS011;2115;51.038;7.006;2022-10-16T15:02:48;3.30;;;0.80;;
4202;SDS011;2115;51.038;7.006;2022-10-16T15:05:18;5.50;;;1.00;;
4202;SDS011;2115;51.038;7.006;2022-10-16T15:07:51;2.50;;;1.00;;
4202;SDS011;2115;51.038;7.006;2022-10-16T15:10:18;1.50;;;0.80;;
4202;SDS011;2115;51.038;7.006;2022-10-16T15:12:45;2.70;;;0.90;;
4202;SDS011;2115;51.038;7.006;2022-10-16T15:17:48;2.27;;;1.30;;
4202;SDS011;2115;51.038;7.006;2022-10-16T15:20:17;2.20;;;0.90;;
4202;SDS011;2115;51.038;7.006;2022-10-16T15:22:43;2.40;;;0.90;;
4202;SDS011;2115;51.038;7.006;2022-10-16T15:27:56;3.70;;;1.20;;
4202;SDS011;2115;51.038;7.006;2022-10-16T15:30:22;2.60;;;1.03;;
4202;SDS011;2115;51.038;7.006;2022-10-16T15:32:47;3.93;;;0.93;;
4202;SDS011;2115;51.038;7.006;2022-10-16T15:35:12;2.63;;;1.00;;
4202;SDS011;2115;51.038;7.006;2022-10-16T15:37:38;2.43;;;1.17;;
4202;SDS011;2115;51.038;7.006;2022-10-16T15:40:03;5.33;;;1.50;;
4202;SDS011;2115;51.038;7.006;2022-10-16T15:42:29;2.23;;;1.13;;
4202;SDS011;2115;51.038;7.006;2022-10-16T15:44:54;4.03;;;1.30;;
4202;SDS011;2115;51.038;7.006;2022-10-16T15:47:19;3.63;;;1.20;;
4202;SDS011;2115;51.038;7.006;2022-10-16T15:49:45;10.00;;;1.20;;
4202;SDS011;2115;51.038;7.006;2022-10-16T15:52:11;2.10;;;1.00;;
4202;SDS011;2115;51.038;7.006;2022-10-16T15:54:36;6.37;;;1.77;;
4202;SDS011;2115;51.038;7.006;2022-10-16T15:57:01;6.60;;;1.50;;
4202;SDS011;2115;51.038;7.006;2022-10-16T15:59:27;3.10;;;1.37;;
4202;SDS011;2115;51.038;7.006;2022-10-16T16:01:52;3.03;;;1.70;;
4202;SDS011;2115;51.038;7.006;2022-10-16T16:04:18;5.70;;;1.40;;
4202;SDS011;2115;51.038;7.006;2022-10-16T16:06:43;2.57;;;1.60;;
4202;SDS011;2115;51.038;7.006;2022-10-16T16:09:12;3.00;;;1.93;;
4202;SDS011;2115;51.038;7.006;2022-10-16T16:11:38;9.23;;;2.47;;
4202;SDS011;2115;51.038;7.006;2022-10-16T16:14:07;4.73;;;2.20;;
4202;SDS011;2115;51.038;7.006;2022-10-16T16:16:33;9.20;;;1.83;;
4202;SDS011;2115;51.038;7.006;2022-10-16T16:19:02;2.50;;;1.63;;
4202;SDS011;2115;51.038;7.006;2022-10-16T16:21:28;8.13;;;1.87;;
4202;SDS011;2115;51.038;7.006;2022-10-16T16:23:54;4.13;;;2.33;;
4202;SDS011;2115;51.038;7.006;2022-10-16T16:26:23;3.40;;;2.20;;
4202;SDS011;2115;51.038;7.006;2022-10-16T16:28:51;3.43;;;2.00;;
4202;SDS011;2115;51.038;7.006;2022-10-16T16:31:17;8.27;;;2.00;;
4202;SDS011;2115;51.038;7.006;2022-10-16T16:33:42;2.50;;;1.73;;
4202;SDS011;2115;51.038;7.006;2022-10-16T16:36:07;9.60;;;2.07;;
4202;SDS011;2115;51.038;7.006;2022-10-16T16:38:33;5.67;;;2.10;;
4202;SDS011;2115;51.038;7.006;2022-10-16T16:40:58;4.50;;;1.30;;
4202;SDS011;2115;51.038;7.006;2022-10-16T16:43:24;5.30;;;1.43;;
4202;SDS011;2115;51.038;7.006;2022-10-16T16:45:50;2.97;;;1.67;;
4202;SDS011;2115;51.038;7.006;2022-10-16T16:48:16;10.23;;;1.40;;
4202;SDS011;2115;51.038;7.006;2022-10-16T16:50:41;5.10;;;1.30;;
4202;SDS011;2115;51.038;7.006;2022-10-16T16:53:07;4.07;;;1.80;;
4202;SDS011;2115;51.038;7.006;2022-10-16T16:55:32;3.30;;;1.20;;
4202;SDS011;2115;51.038;7.006;2022-10-16T16:57:58;7.83;;;1.50;;
4202;SDS011;2115;51.038;7.006;2022-10-16T17:00:23;1.80;;;1.10;;
4202;SDS011;2115;51.038;7.006;2022-10-16T17:02:49;1.77;;;1.10;;
4202;SDS011;2115;51.038;7.006;2022-10-16T17:05:14;11.07;;;1.43;;
4202;SDS011;2115;51.038;7.006;2022-10-16T17:07:40;8.53;;;1.27;;
4202;SDS011;2115;51.038;7.006;2022-10-16T17:10:06;4.57;;;2.13;;
4202;SDS011;2115;51.038;7.006;2022-10-16T17:12:32;1.73;;;0.90;;